sensor_id;sensor_type;location;lat;lon;timestamp;pressure;altitude;pressure_sealevel;temperature
74321;BMP280;62738;45.772;4.804;2023-07-24T00:01:24;99027.06;;;30.54
74321;BMP280;62738;45.772;4.804;2023-07-24T00:03:51;99016.75;;;30.18
74321;BMP280;62738;45.772;4.804;2023-07-24T00:06:18;99016.84;;;30.10
74321;BMP280;62738;45.772;4.804;2023-07-24T00:08:44;99001.25;;;29.95
74321;BMP280;62738;45.772;4.804;2023-07-24T00:11:11;99004.16;;;29.89
74321;BMP280;62738;45.772;4.804;2023-07-24T00:13:37;98996.38;;;29.82
74321;BMP280;62738;45.772;4.804;2023-07-24T00:16:08;98986.28;;;29.91
74321;BMP280;62738;45.772;4.804;2023-07-24T00:18:35;98981.28;;;29.87
74321;BMP280;62738;45.772;4.804;2023-07-24T00:21:02;98981.28;;;29.89
74321;BMP280;62738;45.772;4.804;2023-07-24T00:23:28;98981.81;;;30.10
74321;BMP280;62738;45.772;4.804;2023-07-24T00:25:55;98991.06;;;30.12
74321;BMP280;62738;45.772;4.804;2023-07-24T00:28:21;98980.34;;;30.11
74321;BMP280;62738;45.772;4.804;2023-07-24T00:30:48;98974.72;;;30.03
74321;BMP280;62738;45.772;4.804;2023-07-24T00:33:15;98973.94;;;30.10
74321;BMP280;62738;45.772;4.804;2023-07-24T00:35:41;98966.19;;;29.99
74321;BMP280;62738;45.772;4.804;2023-07-24T00:38:08;98974.03;;;30.00
74321;BMP280;62738;45.772;4.804;2023-07-24T00:40:35;98977.47;;;30.15
74321;BMP280;62738;45.772;4.804;2023-07-24T00:43:01;98970.34;;;30.12
74321;BMP280;62738;45.772;4.804;2023-07-24T00:45:28;98963.06;;;30.21
74321;BMP280;62738;45.772;4.804;2023-07-24T00:47:55;98952.59;;;29.97
74321;BMP280;62738;45.772;4.804;2023-07-24T00:50:22;98956.28;;;29.88
74321;BMP280;62738;45.772;4.804;2023-07-24T00:52:49;98946.41;;;29.74
74321;BMP280;62738;45.772;4.804;2023-07-24T00:55:16;98929.38;;;29.60
74321;BMP280;62738;45.772;4.804;2023-07-24T00:57:43;98933.81;;;29.47
74321;BMP280;62738;45.772;4.804;2023-07-24T01:00:11;98966.69;;;29.44
74321;BMP280;62738;45.772;4.804;2023-07-24T01:02:38;99002.47;;;29.31
74321;BMP280;62738;45.772;4.804;2023-07-24T01:05:05;99034.06;;;29.03
74321;BMP280;62738;45.772;4.804;2023-07-24T01:07:33;99058.41;;;28.88
74321;BMP280;62738;45.772;4.804;2023-07-24T01:09:59;99109.88;;;28.62
74321;BMP280;62738;45.772;4.804;2023-07-24T01:12:37;99195.41;;;27.89
74321;BMP280;62738;45.772;4.804;2023-07-24T01:15:09;99224.56;;;25.37
74321;BMP280;62738;45.772;4.804;2023-07-24T01:17:42;99245.84;;;23.78
74321;BMP280;62738;45.772;4.804;2023-07-24T01:20:11;99247.91;;;23.44
74321;BMP280;62738;45.772;4.804;2023-07-24T01:22:39;99202.09;;;23.53
74321;BMP280;62738;45.772;4.804;2023-07-24T01:25:32;99122.41;;;23.67
74321;BMP280;62738;45.772;4.804;2023-07-24T01:28:09;99109.22;;;24.20
74321;BMP280;62738;45.772;4.804;2023-07-24T01:30:35;99102.88;;;24.63
74321;BMP280;62738;45.772;4.804;2023-07-24T01:33:02;99127.41;;;24.92
74321;BMP280;62738;45.772;4.804;2023-07-24T01:35:30;99134.31;;;25.29
74321;BMP280;62738;45.772;4.804;2023-07-24T01:37:59;99121.81;;;25.52
74321;BMP280;62738;45.772;4.804;2023-07-24T01:40:26;99125.56;;;25.69
74321;BMP280;62738;45.772;4.804;2023-07-24T01:42:53;99137.19;;;25.93
74321;BMP280;62738;45.772;4.804;2023-07-24T01:45:19;99137.91;;;25.96
74321;BMP280;62738;45.772;4.804;2023-07-24T01:47:46;99145.84;;;26.05
74321;BMP280;62738;45.772;4.804;2023-07-24T01:50:13;99154.56;;;26.25
74321;BMP280;62738;45.772;4.804;2023-07-24T01:52:39;99126.16;;;26.28
74321;BMP280;62738;45.772;4.804;2023-07-24T01:55:06;99114.84;;;26.36
74321;BMP280;62738;45.772;4.804;2023-07-24T01:57:33;99123.44;;;26.42
74321;BMP280;62738;45.772;4.804;2023-07-24T02:00:00;99090.06;;;26.44
74321;BMP280;62738;45.772;4.804;2023-07-24T02:02:26;99066.56;;;26.44
74321;BMP280;62738;45.772;4.804;2023-07-24T02:04:53;99054.53;;;26.53
74321;BMP280;62738;45.772;4.804;2023-07-24T02:07:20;99048.84;;;26.57
74321;BMP280;62738;45.772;4.804;2023-07-24T02:09:46;99056.66;;;26.55
74321;BMP280;62738;45.772;4.804;2023-07-24T02:12:14;99039.59;;;26.55
74321;BMP280;62738;45.772;4.804;2023-07-24T02:14:41;99026.09;;;26.53
74321;BMP280;62738;45.772;4.804;2023-07-24T02:17:08;99012.59;;;26.58
74321;BMP280;62738;45.772;4.804;2023-07-24T02:19:34;99016.19;;;26.64
74321;BMP280;62738;45.772;4.804;2023-07-24T02:22:01;99015.50;;;26.66
74321;BMP280;62738;45.772;4.804;2023-07-24T02:24:27;99005.47;;;26.51
74321;BMP280;62738;45.772;4.804;2023-07-24T02:26:54;99018.72;;;26.16
74321;BMP280;62738;45.772;4.804;2023-07-24T02:29:21;99031.50;;;26.11
74321;BMP280;62738;45.772;4.804;2023-07-24T02:31:50;99043.72;;;26.32
74321;BMP280;62738;45.772;4.804;2023-07-24T02:34:16;99030.94;;;26.33
74321;BMP280;62738;45.772;4.804;2023-07-24T02:36:43;99030.16;;;26.26
74321;BMP280;62738;45.772;4.804;2023-07-24T02:39:10;99030.91;;;26.31
74321;BMP280;62738;45.772;4.804;2023-07-24T02:41:36;99013.75;;;26.16
74321;BMP280;62738;45.772;4.804;2023-07-24T02:44:03;99018.78;;;26.26
74321;BMP280;62738;45.772;4.804;2023-07-24T02:46:30;99023.91;;;26.44
74321;BMP280;62738;45.772;4.804;2023-07-24T02:48:57;99048.84;;;26.49
74321;BMP280;62738;45.772;4.804;2023-07-24T02:51:24;99059.41;;;26.39
74321;BMP280;62738;45.772;4.804;2023-07-24T02:53:53;99075.00;;;26.32
74321;BMP280;62738;45.772;4.804;2023-07-24T02:56:20;99082.03;;;26.20
74321;BMP280;62738;45.772;4.804;2023-07-24T02:58:47;99090.59;;;26.24
74321;BMP280;62738;45.772;4.804;2023-07-24T03:01:14;99090.63;;;26.31
74321;BMP280;62738;45.772;4.804;2023-07-24T03:03:41;99090.69;;;26.35
74321;BMP280;62738;45.772;4.804;2023-07-24T03:06:08;99067.22;;;26.36
74321;BMP280;62738;45.772;4.804;2023-07-24T03:08:34;99032.41;;;26.42
74321;BMP280;62738;45.772;4.804;2023-07-24T03:11:04;99011.91;;;26.61
74321;BMP280;62738;45.772;4.804;2023-07-24T03:13:31;98992.44;;;26.15
74321;BMP280;62738;45.772;4.804;2023-07-24T03:15:58;98990.13;;;25.92
74321;BMP280;62738;45.772;4.804;2023-07-24T03:18:25;98980.88;;;25.91
74321;BMP280;62738;45.772;4.804;2023-07-24T03:20:52;98970.31;;;26.02
74321;BMP280;62738;45.772;4.804;2023-07-24T03:23:18;98972.56;;;26.23
74321;BMP280;62738;45.772;4.804;2023-07-24T03:25:46;98985.34;;;26.18
74321;BMP280;62738;45.772;4.804;2023-07-24T03:28:13;98970.50;;;26.32
74321;BMP280;62738;45.772;4.804;2023-07-24T03:30:39;98969.00;;;26.25
74321;BMP280;62738;45.772;4.804;2023-07-24T03:33:06;98989.03;;;26.39
74321;BMP280;62738;45.772;4.804;2023-07-24T03:35:33;98977.63;;;26.35
74321;BMP280;62738;45.772;4.804;2023-07-24T03:38:00;98970.50;;;26.32
74321;BMP280;62738;45.772;4.804;2023-07-24T03:40:27;98957.03;;;26.37
74321;BMP280;62738;45.772;4.804;2023-07-24T03:42:53;98962.78;;;26.49
74321;BMP280;62738;45.772;4.804;2023-07-24T03:45:20;98962.72;;;26.39
74321;BMP280;62738;45.772;4.804;2023-07-24T03:47:47;98965.56;;;26.37
74321;BMP280;62738;45.772;4.804;2023-07-24T03:50:14;98965.63;;;26.47
74321;BMP280;62738;45.772;4.804;2023-07-24T03:52:40;98980.50;;;26.37
74321;BMP280;62738;45.772;4.804;2023-07-24T03:55:07;98998.88;;;26.18
74321;BMP280;62738;45.772;4.804;2023-07-24T03:57:34;99009.63;;;26.36
74321;BMP280;62738;45.772;4.804;2023-07-24T04:00:02;99012.50;;;26.38
74321;BMP280;62738;45.772;4.804;2023-07-24T04:02:29;99019.50;;;26.20
74321;BMP280;62738;45.772;4.804;2023-07-24T04:04:55;99029.91;;;25.96
74321;BMP280;62738;45.772;4.804;2023-07-24T04:07:22;99022.00;;;25.82
74321;BMP280;62738;45.772;4.804;2023-07-24T04:09:49;98989.13;;;25.63
74321;BMP280;62738;45.772;4.804;2023-07-24T04:12:16;98969.25;;;25.63
74321;BMP280;62738;45.772;4.804;2023-07-24T04:14:42;98986.28;;;25.61
74321;BMP280;62738;45.772;4.804;2023-07-24T04:17:09;98967.81;;;25.60
74321;BMP280;62738;45.772;4.804;2023-07-24T04:19:36;98950.09;;;25.63
74321;BMP280;62738;45.772;4.804;2023-07-24T04:22:02;98970.00;;;25.65
74321;BMP280;62738;45.772;4.804;2023-07-24T04:24:29;98989.97;;;25.74
74321;BMP280;62738;45.772;4.804;2023-07-24T04:26:56;99007.72;;;25.72
74321;BMP280;62738;45.772;4.804;2023-07-24T04:29:22;99010.44;;;25.60
74321;BMP280;62738;45.772;4.804;2023-07-24T04:31:52;99009.84;;;25.72
74321;BMP280;62738;45.772;4.804;2023-07-24T04:34:19;98999.38;;;25.22
74321;BMP280;62738;45.772;4.804;2023-07-24T04:36:45;99000.63;;;25.09
74321;BMP280;62738;45.772;4.804;2023-07-24T04:39:12;98948.91;;;25.15
74321;BMP280;62738;45.772;4.804;2023-07-24T04:41:38;98952.59;;;25.27
74321;BMP280;62738;45.772;4.804;2023-07-24T04:44:05;98986.88;;;25.49
74321;BMP280;62738;45.772;4.804;2023-07-24T04:46:32;98998.25;;;25.49
74321;BMP280;62738;45.772;4.804;2023-07-24T04:48:59;99010.13;;;25.30
74321;BMP280;62738;45.772;4.804;2023-07-24T04:51:26;99024.78;;;25.12
74321;BMP280;62738;45.772;4.804;2023-07-24T04:53:53;99030.53;;;25.16
74321;BMP280;62738;45.772;4.804;2023-07-24T04:56:20;99042.75;;;25.29
74321;BMP280;62738;45.772;4.804;2023-07-24T04:58:46;98994.63;;;25.41
74321;BMP280;62738;45.772;4.804;2023-07-24T05:01:13;98935.81;;;25.55
74321;BMP280;62738;45.772;4.804;2023-07-24T05:03:40;98918.88;;;25.69
74321;BMP280;62738;45.772;4.804;2023-07-24T05:06:06;98904.72;;;25.74
74321;BMP280;62738;45.772;4.804;2023-07-24T05:08:33;98859.28;;;25.76
74321;BMP280;62738;45.772;4.804;2023-07-24T05:11:00;98807.50;;;25.87
74321;BMP280;62738;45.772;4.804;2023-07-24T05:13:26;98775.59;;;26.01
74321;BMP280;62738;45.772;4.804;2023-07-24T05:15:53;98769.19;;;26.00
74321;BMP280;62738;45.772;4.804;2023-07-24T05:18:20;98781.94;;;25.89
74321;BMP280;62738;45.772;4.804;2023-07-24T05:20:47;98832.25;;;25.73
74321;BMP280;62738;45.772;4.804;2023-07-24T05:23:15;98904.03;;;25.77
74321;BMP280;62738;45.772;4.804;2023-07-24T05:25:41;98961.03;;;25.97
74321;BMP280;62738;45.772;4.804;2023-07-24T05:28:08;98980.16;;;25.93
74321;BMP280;62738;45.772;4.804;2023-07-24T05:30:35;99007.81;;;25.84
74321;BMP280;62738;45.772;4.804;2023-07-24T05:33:02;99031.97;;;25.17
74321;BMP280;62738;45.772;4.804;2023-07-24T05:35:29;99045.06;;;24.86
74321;BMP280;62738;45.772;4.804;2023-07-24T05:37:56;99061.13;;;24.72
74321;BMP280;62738;45.772;4.804;2023-07-24T05:40:22;99079.13;;;24.88
74321;BMP280;62738;45.772;4.804;2023-07-24T05:42:49;99087.75;;;24.94
74321;BMP280;62738;45.772;4.804;2023-07-24T05:45:16;99075.16;;;25.09
74321;BMP280;62738;45.772;4.804;2023-07-24T05:47:42;99081.81;;;25.28
74321;BMP280;62738;45.772;4.804;2023-07-24T05:50:09;99045.06;;;25.44
74321;BMP280;62738;45.772;4.804;2023-07-24T05:52:36;99044.53;;;25.60
74321;BMP280;62738;45.772;4.804;2023-07-24T05:55:03;99038.38;;;25.86
74321;BMP280;62738;45.772;4.804;2023-07-24T05:57:30;99054.03;;;25.89
74321;BMP280;62738;45.772;4.804;2023-07-24T05:59:57;99056.88;;;25.89
74321;BMP280;62738;45.772;4.804;2023-07-24T06:02:23;99066.19;;;25.97
74321;BMP280;62738;45.772;4.804;2023-07-24T06:04:50;99059.75;;;25.91
74321;BMP280;62738;45.772;4.804;2023-07-24T06:07:17;99068.31;;;25.99
74321;BMP280;62738;45.772;4.804;2023-07-24T06:09:43;99053.41;;;25.98
74321;BMP280;62738;45.772;4.804;2023-07-24T06:12:10;99044.81;;;25.90
74321;BMP280;62738;45.772;4.804;2023-07-24T06:14:37;99034.84;;;25.85
74321;BMP280;62738;45.772;4.804;2023-07-24T06:17:04;99019.09;;;25.76
74321;BMP280;62738;45.772;4.804;2023-07-24T06:19:30;99015.63;;;25.82
74321;BMP280;62738;45.772;4.804;2023-07-24T06:21:57;99022.16;;;25.98
74321;BMP280;62738;45.772;4.804;2023-07-24T06:24:24;98988.00;;;25.96
74321;BMP280;62738;45.772;4.804;2023-07-24T06:26:50;98928.97;;;25.85
74321;BMP280;62738;45.772;4.804;2023-07-24T06:29:17;98902.06;;;25.98
74321;BMP280;62738;45.772;4.804;2023-07-24T06:31:44;98916.94;;;25.88
74321;BMP280;62738;45.772;4.804;2023-07-24T06:34:10;98946.66;;;25.79
74321;BMP280;62738;45.772;4.804;2023-07-24T06:36:37;98990.69;;;25.74
74321;BMP280;62738;45.772;4.804;2023-07-24T06:39:04;99014.81;;;25.73
74321;BMP280;62738;45.772;4.804;2023-07-24T06:41:30;99004.22;;;25.80
74321;BMP280;62738;45.772;4.804;2023-07-24T06:43:57;98992.22;;;25.87
74321;BMP280;62738;45.772;4.804;2023-07-24T06:46:24;98986.56;;;25.93
74321;BMP280;62738;45.772;4.804;2023-07-24T06:48:51;99003.03;;;26.07
74321;BMP280;62738;45.772;4.804;2023-07-24T06:51:17;99008.75;;;26.13
74321;BMP280;62738;45.772;4.804;2023-07-24T06:53:44;99020.91;;;26.19
74321;BMP280;62738;45.772;4.804;2023-07-24T06:56:10;99019.47;;;26.18
74321;BMP280;62738;45.772;4.804;2023-07-24T06:58:37;99002.47;;;26.31
74321;BMP280;62738;45.772;4.804;2023-07-24T07:01:07;99013.94;;;26.41
74321;BMP280;62738;45.772;4.804;2023-07-24T07:03:34;99006.09;;;26.41
74321;BMP280;62738;45.772;4.804;2023-07-24T07:06:03;99004.00;;;26.46
74321;BMP280;62738;45.772;4.804;2023-07-24T07:08:30;99009.69;;;26.44
74321;BMP280;62738;45.772;4.804;2023-07-24T07:11:00;99009.00;;;26.49
74321;BMP280;62738;45.772;4.804;2023-07-24T07:13:27;99000.53;;;26.59
74321;BMP280;62738;45.772;4.804;2023-07-24T07:15:54;99015.34;;;26.38
74321;BMP280;62738;45.772;4.804;2023-07-24T07:18:20;99033.03;;;26.28
74321;BMP280;62738;45.772;4.804;2023-07-24T07:20:52;99014.41;;;26.09
74321;BMP280;62738;45.772;4.804;2023-07-24T07:23:19;99003.75;;;26.07
74321;BMP280;62738;45.772;4.804;2023-07-24T07:25:46;98972.50;;;26.11
74321;BMP280;62738;45.772;4.804;2023-07-24T07:28:14;98951.19;;;26.12
74321;BMP280;62738;45.772;4.804;2023-07-24T07:30:42;98966.91;;;26.28
74321;BMP280;62738;45.772;4.804;2023-07-24T07:33:11;98981.09;;;26.17
74321;BMP280;62738;45.772;4.804;2023-07-24T07:35:38;98990.31;;;26.16
74321;BMP280;62738;45.772;4.804;2023-07-24T07:38:04;98991.06;;;26.29
74321;BMP280;62738;45.772;4.804;2023-07-24T07:40:31;98976.88;;;26.29
74321;BMP280;62738;45.772;4.804;2023-07-24T07:42:57;98966.66;;;25.91
74321;BMP280;62738;45.772;4.804;2023-07-24T07:45:24;98960.16;;;25.75
74321;BMP280;62738;45.772;4.804;2023-07-24T07:47:51;98977.16;;;25.73
74321;BMP280;62738;45.772;4.804;2023-07-24T07:50:20;98989.84;;;25.63
74321;BMP280;62738;45.772;4.804;2023-07-24T07:52:50;98974.38;;;25.79
74321;BMP280;62738;45.772;4.804;2023-07-24T07:55:18;98985.66;;;25.68
74321;BMP280;62738;45.772;4.804;2023-07-24T07:57:45;98975.16;;;25.87
74321;BMP280;62738;45.772;4.804;2023-07-24T08:00:12;98946.75;;;25.87
74321;BMP280;62738;45.772;4.804;2023-07-24T08:02:39;98963.16;;;25.97
74321;BMP280;62738;45.772;4.804;2023-07-24T08:05:10;98980.59;;;25.61
74321;BMP280;62738;45.772;4.804;2023-07-24T08:07:46;98996.34;;;25.72
74321;BMP280;62738;45.772;4.804;2023-07-24T08:10:13;99013.34;;;25.68
74321;BMP280;62738;45.772;4.804;2023-07-24T08:12:43;99005.69;;;25.85
74321;BMP280;62738;45.772;4.804;2023-07-24T08:15:10;98999.16;;;25.70
74321;BMP280;62738;45.772;4.804;2023-07-24T08:17:37;99007.72;;;25.76
74321;BMP280;62738;45.772;4.804;2023-07-24T08:20:05;98991.34;;;25.73
74321;BMP280;62738;45.772;4.804;2023-07-24T08:22:32;98964.38;;;25.74
74321;BMP280;62738;45.772;4.804;2023-07-24T08:24:58;98962.31;;;25.78
74321;BMP280;62738;45.772;4.804;2023-07-24T08:27:25;98981.38;;;25.69
74321;BMP280;62738;45.772;4.804;2023-07-24T08:29:52;98987.84;;;25.76
74321;BMP280;62738;45.772;4.804;2023-07-24T08:32:19;98991.41;;;25.77
74321;BMP280;62738;45.772;4.804;2023-07-24T08:34:47;98974.44;;;25.85
74321;BMP280;62738;45.772;4.804;2023-07-24T08:37:14;98966.00;;;25.99
74321;BMP280;62738;45.772;4.804;2023-07-24T08:39:40;98973.84;;;26.00
74321;BMP280;62738;45.772;4.804;2023-07-24T08:42:09;98990.97;;;26.08
74321;BMP280;62738;45.772;4.804;2023-07-24T08:44:36;98972.47;;;26.07
74321;BMP280;62738;45.772;4.804;2023-07-24T08:47:03;98966.06;;;26.05
74321;BMP280;62738;45.772;4.804;2023-07-24T08:49:31;98976.75;;;26.10
74321;BMP280;62738;45.772;4.804;2023-07-24T08:51:58;98971.19;;;26.29
74321;BMP280;62738;45.772;4.804;2023-07-24T08:54:27;98973.41;;;26.40
74321;BMP280;62738;45.772;4.804;2023-07-24T08:56:54;98979.16;;;26.58
74321;BMP280;62738;45.772;4.804;2023-07-24T08:59:21;98996.97;;;26.59
74321;BMP280;62738;45.772;4.804;2023-07-24T09:01:48;98992.72;;;26.62
74321;BMP280;62738;45.772;4.804;2023-07-24T09:04:15;98995.53;;;26.62
74321;BMP280;62738;45.772;4.804;2023-07-24T09:06:42;98987.78;;;26.74
74321;BMP280;62738;45.772;4.804;2023-07-24T09:09:15;98996.38;;;26.85
74321;BMP280;62738;45.772;4.804;2023-07-24T09:11:53;98993.56;;;26.95
74321;BMP280;62738;45.772;4.804;2023-07-24T09:14:24;99011.38;;;27.01
74321;BMP280;62738;45.772;4.804;2023-07-24T09:17:08;99011.41;;;27.07
74321;BMP280;62738;45.772;4.804;2023-07-24T09:19:35;98998.63;;;27.20
74321;BMP280;62738;45.772;4.804;2023-07-24T09:22:13;99011.50;;;27.40
74321;BMP280;62738;45.772;4.804;2023-07-24T09:24:55;99014.34;;;27.54
74321;BMP280;62738;45.772;4.804;2023-07-24T09:27:26;99006.53;;;27.80
74321;BMP280;62738;45.772;4.804;2023-07-24T09:29:54;98996.56;;;27.93
74321;BMP280;62738;45.772;4.804;2023-07-24T09:32:26;98988.72;;;28.04
74321;BMP280;62738;45.772;4.804;2023-07-24T09:34:53;98987.25;;;28.11
74321;BMP280;62738;45.772;4.804;2023-07-24T09:37:24;98972.31;;;28.07
74321;BMP280;62738;45.772;4.804;2023-07-24T09:39:51;98965.19;;;27.95
74321;BMP280;62738;45.772;4.804;2023-07-24T09:42:30;98983.75;;;27.94
74321;BMP280;62738;45.772;4.804;2023-07-24T09:44:57;98987.31;;;27.95
74321;BMP280;62738;45.772;4.804;2023-07-24T09:47:24;98980.19;;;27.80
74321;BMP280;62738;45.772;4.804;2023-07-24T09:50:10;98982.34;;;27.67
74321;BMP280;62738;45.772;4.804;2023-07-24T09:52:40;98978.06;;;27.64
74321;BMP280;62738;45.772;4.804;2023-07-24T09:55:12;98981.59;;;27.63
74321;BMP280;62738;45.772;4.804;2023-07-24T09:57:41;98993.00;;;27.79
74321;BMP280;62738;45.772;4.804;2023-07-24T10:00:08;98991.59;;;28.00
74321;BMP280;62738;45.772;4.804;2023-07-24T10:02:36;98990.16;;;28.01
74321;BMP280;62738;45.772;4.804;2023-07-24T10:05:03;98995.84;;;28.13
74321;BMP280;62738;45.772;4.804;2023-07-24T10:07:31;98995.81;;;28.25
74321;BMP280;62738;45.772;4.804;2023-07-24T10:09:58;98985.78;;;28.34
74321;BMP280;62738;45.772;4.804;2023-07-24T10:12:25;98977.19;;;28.48
74321;BMP280;62738;45.772;4.804;2023-07-24T10:14:55;98974.34;;;28.50
74321;BMP280;62738;45.772;4.804;2023-07-24T10:17:42;98968.56;;;28.65
74321;BMP280;62738;45.772;4.804;2023-07-24T10:20:10;98964.34;;;28.51
74321;BMP280;62738;45.772;4.804;2023-07-24T10:22:41;98961.53;;;28.39
74321;BMP280;62738;45.772;4.804;2023-07-24T10:25:09;98945.81;;;28.46
74321;BMP280;62738;45.772;4.804;2023-07-24T10:27:42;98950.88;;;28.28
74321;BMP280;62738;45.772;4.804;2023-07-24T10:30:10;98949.47;;;28.19
74321;BMP280;62738;45.772;4.804;2023-07-24T10:33:13;98965.88;;;28.24
74321;BMP280;62738;45.772;4.804;2023-07-24T10:35:51;98985.13;;;28.22
74321;BMP280;62738;45.772;4.804;2023-07-24T10:38:18;99006.53;;;27.80
74321;BMP280;62738;45.772;4.804;2023-07-24T10:40:47;99014.34;;;27.50
74321;BMP280;62738;45.772;4.804;2023-07-24T10:43:20;99030.72;;;27.37
74321;BMP280;62738;45.772;4.804;2023-07-24T10:45:51;99032.84;;;27.32
74321;BMP280;62738;45.772;4.804;2023-07-24T10:48:20;99037.06;;;27.19
74321;BMP280;62738;45.772;4.804;2023-07-24T10:50:49;99015.72;;;27.30
74321;BMP280;62738;45.772;4.804;2023-07-24T10:53:22;99025.00;;;27.29
74321;BMP280;62738;45.772;4.804;2023-07-24T10:55:50;99018.59;;;27.47
74321;BMP280;62738;45.772;4.804;2023-07-24T10:58:18;99008.66;;;27.78
74321;BMP280;62738;45.772;4.804;2023-07-24T11:00:45;99013.63;;;27.41
74321;BMP280;62738;45.772;4.804;2023-07-24T11:03:14;99004.34;;;27.30
74321;BMP280;62738;45.772;4.804;2023-07-24T11:05:45;99010.06;;;27.47
74321;BMP280;62738;45.772;4.804;2023-07-24T11:08:16;99005.75;;;27.17
74321;BMP280;62738;45.772;4.804;2023-07-24T11:10:57;99002.88;;;27.15
74321;BMP280;62738;45.772;4.804;2023-07-24T11:13:26;99005.72;;;27.07
74321;BMP280;62738;45.772;4.804;2023-07-24T11:15:54;99000.66;;;26.88
74321;BMP280;62738;45.772;4.804;2023-07-24T11:18:21;98995.69;;;26.96
74321;BMP280;62738;45.772;4.804;2023-07-24T11:20:51;98991.38;;;26.85
74321;BMP280;62738;45.772;4.804;2023-07-24T11:23:18;98993.59;;;27.15
74321;BMP280;62738;45.772;4.804;2023-07-24T11:25:46;98991.56;;;27.40
74321;BMP280;62738;45.772;4.804;2023-07-24T11:28:14;98996.53;;;27.37
74321;BMP280;62738;45.772;4.804;2023-07-24T11:30:41;98997.94;;;27.30
74321;BMP280;62738;45.772;4.804;2023-07-24T11:33:10;98987.88;;;26.93
74321;BMP280;62738;45.772;4.804;2023-07-24T11:35:40;98978.56;;;26.78
74321;BMP280;62738;45.772;4.804;2023-07-24T11:38:10;98979.91;;;26.63
74321;BMP280;62738;45.772;4.804;2023-07-24T11:40:39;98962.81;;;26.61
74321;BMP280;62738;45.772;4.804;2023-07-24T11:43:17;98958.56;;;26.62
74321;BMP280;62738;45.772;4.804;2023-07-24T11:45:45;98952.19;;;26.67
74321;BMP280;62738;45.772;4.804;2023-07-24T11:48:13;98952.88;;;26.62
74321;BMP280;62738;45.772;4.804;2023-07-24T11:50:44;98931.56;;;26.67
74321;BMP280;62738;45.772;4.804;2023-07-24T11:55:53;98950.84;;;26.76
74321;BMP280;62738;45.772;4.804;2023-07-24T11:58:20;98976.50;;;26.95
74321;BMP280;62738;45.772;4.804;2023-07-24T12:00:48;98964.38;;;26.90
74321;BMP280;62738;45.772;4.804;2023-07-24T12:03:22;98995.00;;;27.00
74321;BMP280;62738;45.772;4.804;2023-07-24T12:05:51;98994.28;;;26.95
74321;BMP280;62738;45.772;4.804;2023-07-24T12:08:20;99002.16;;;27.05
74321;BMP280;62738;45.772;4.804;2023-07-24T12:10:50;98986.53;;;27.18
74321;BMP280;62738;45.772;4.804;2023-07-24T12:13:17;98957.31;;;27.13
74321;BMP280;62738;45.772;4.804;2023-07-24T12:15:47;98961.50;;;26.78
74321;BMP280;62738;45.772;4.804;2023-07-24T12:18:14;98947.78;;;26.38
74321;BMP280;62738;45.772;4.804;2023-07-24T12:20:41;98948.44;;;26.29
74321;BMP280;62738;45.772;4.804;2023-07-24T12:23:08;98949.97;;;26.52
74321;BMP280;62738;45.772;4.804;2023-07-24T12:25:35;98943.72;;;26.90
74321;BMP280;62738;45.772;4.804;2023-07-24T12:28:02;98940.25;;;27.07
74321;BMP280;62738;45.772;4.804;2023-07-24T12:30:28;98937.41;;;27.31
74321;BMP280;62738;45.772;4.804;2023-07-24T12:32:55;98924.63;;;27.49
74321;BMP280;62738;45.772;4.804;2023-07-24T12:35:22;98931.72;;;27.62
74321;BMP280;62738;45.772;4.804;2023-07-24T12:37:48;98930.28;;;27.81
74321;BMP280;62738;45.772;4.804;2023-07-24T12:40:15;98926.00;;;27.98
74321;BMP280;62738;45.772;4.804;2023-07-24T12:42:42;98921.69;;;28.07
74321;BMP280;62738;45.772;4.804;2023-07-24T12:45:08;98920.94;;;28.31
74321;BMP280;62738;45.772;4.804;2023-07-24T12:47:35;98906.66;;;28.31
74321;BMP280;62738;45.772;4.804;2023-07-24T12:50:02;98915.88;;;28.45
74321;BMP280;62738;45.772;4.804;2023-07-24T12:52:33;98911.53;;;28.59
74321;BMP280;62738;45.772;4.804;2023-07-24T12:55:00;98915.72;;;28.74
74321;BMP280;62738;45.772;4.804;2023-07-24T12:57:28;98909.31;;;28.69
74321;BMP280;62738;45.772;4.804;2023-07-24T12:59:55;98918.63;;;28.68
74321;BMP280;62738;45.772;4.804;2023-07-24T13:02:21;98914.97;;;28.77
74321;BMP280;62738;45.772;4.804;2023-07-24T13:04:48;98915.63;;;28.94
74321;BMP280;62738;45.772;4.804;2023-07-24T13:07:15;98915.66;;;28.92
74321;BMP280;62738;45.772;4.804;2023-07-24T13:09:42;98916.94;;;29.07
74321;BMP280;62738;45.772;4.804;2023-07-24T13:12:09;98926.84;;;29.22
74321;BMP280;62738;45.772;4.804;2023-07-24T13:14:35;98923.06;;;29.46
74321;BMP280;62738;45.772;4.804;2023-07-24T13:17:05;98904.31;;;29.67
74321;BMP280;62738;45.772;4.804;2023-07-24T13:19:32;98908.59;;;29.66
74321;BMP280;62738;45.772;4.804;2023-07-24T13:21:59;98907.13;;;29.71
74321;BMP280;62738;45.772;4.804;2023-07-24T13:24:25;98911.22;;;29.90
74321;BMP280;62738;45.772;4.804;2023-07-24T13:26:52;98914.69;;;29.99
74321;BMP280;62738;45.772;4.804;2023-07-24T13:29:19;98911.50;;;30.27
74321;BMP280;62738;45.772;4.804;2023-07-24T13:31:50;98907.19;;;30.28
74321;BMP280;62738;45.772;4.804;2023-07-24T13:34:18;98898.38;;;30.46
74321;BMP280;62738;45.772;4.804;2023-07-24T13:36:47;98918.38;;;30.50
74321;BMP280;62738;45.772;4.804;2023-07-24T13:39:14;98911.75;;;30.64
74321;BMP280;62738;45.772;4.804;2023-07-24T13:41:41;98903.63;;;30.78
74321;BMP280;62738;45.772;4.804;2023-07-24T13:44:09;98917.50;;;30.60
74321;BMP280;62738;45.772;4.804;2023-07-24T13:46:35;98924.09;;;30.50
74321;BMP280;62738;45.772;4.804;2023-07-24T13:49:06;98936.84;;;30.59
74321;BMP280;62738;45.772;4.804;2023-07-24T13:51:33;98931.19;;;30.55
74321;BMP280;62738;45.772;4.804;2023-07-24T13:53:59;98917.63;;;30.52
74321;BMP280;62738;45.772;4.804;2023-07-24T13:56:28;98915.50;;;30.48
74321;BMP280;62738;45.772;4.804;2023-07-24T13:58:56;98911.19;;;30.51
74321;BMP280;62738;45.772;4.804;2023-07-24T14:01:22;98905.63;;;30.39
74321;BMP280;62738;45.772;4.804;2023-07-24T14:03:49;98898.38;;;30.46
74321;BMP280;62738;45.772;4.804;2023-07-24T14:06:16;98904.63;;;30.59
74321;BMP280;62738;45.772;4.804;2023-07-24T14:08:44;98897.97;;;30.76
74321;BMP280;62738;45.772;4.804;2023-07-24T14:11:10;98894.81;;;30.94
74321;BMP280;62738;45.772;4.804;2023-07-24T14:13:37;98905.34;;;31.08
74321;BMP280;62738;45.772;4.804;2023-07-24T14:16:04;98894.22;;;31.31